createdAt,value
2018-11-13T00:01:59.824Z,15.50
2018-11-13T00:04:27.391Z,12.97
2018-11-13T00:06:55.911Z,12.07
2018-11-13T00:09:23.474Z,11.60
2018-11-13T00:11:51.042Z,12.10
2018-11-13T00:14:19.098Z,14.80
2018-11-13T00:16:46.659Z,11.83
2018-11-13T00:19:14.258Z,12.80
2018-11-13T00:21:41.820Z,13.00
2018-11-13T00:24:09.760Z,13.47
2018-11-13T00:26:38.135Z,13.47
2018-11-13T00:29:05.706Z,13.10
2018-11-13T00:31:33.269Z,11.23
2018-11-13T00:34:00.876Z,13.40
2018-11-13T00:36:28.436Z,15.10
2018-11-13T00:38:55.994Z,13.93
2018-11-13T00:41:24.366Z,13.43
2018-11-13T00:43:52.694Z,12.73
2018-11-13T00:46:20.572Z,13.10
2018-11-13T00:48:48.169Z,14.20
2018-11-13T00:51:16.496Z,15.43
2018-11-13T00:53:44.052Z,14.80
2018-11-13T00:56:11.643Z,15.50
2018-11-13T00:58:39.198Z,18.50
2018-11-13T01:01:06.794Z,13.37
2018-11-13T01:03:35.121Z,17.37
2018-11-13T01:06:03.103Z,15.17
2018-11-13T01:08:30.657Z,14.17
2018-11-13T01:10:58.216Z,14.97
2018-11-13T01:13:25.805Z,15.47
2018-11-13T01:15:53.373Z,15.20
2018-11-13T01:18:20.935Z,19.90
2018-11-13T01:20:48.529Z,20.75
2018-11-13T01:23:16.123Z,17.57
2018-11-13T01:25:43.768Z,14.17
2018-11-13T01:28:11.352Z,12.97
2018-11-13T01:30:38.940Z,15.03
2018-11-13T01:33:06.553Z,12.80
2018-11-13T01:35:34.139Z,10.73
2018-11-13T01:38:01.761Z,13.80
2018-11-13T01:40:30.104Z,14.77
2018-11-13T01:42:57.683Z,12.50
2018-11-13T01:45:25.325Z,16.47
2018-11-13T01:47:52.959Z,13.33
2018-11-13T01:50:21.260Z,12.50
2018-11-13T01:52:48.883Z,10.03
2018-11-13T01:55:16.461Z,15.75
2018-11-13T01:57:44.081Z,14.53
2018-11-13T02:00:12.437Z,15.87
2018-11-13T02:02:40.019Z,15.83
2018-11-13T02:05:08.402Z,15.88
2018-11-13T02:07:36.754Z,10.30
2018-11-13T02:10:04.646Z,10.70
2018-11-13T02:12:32.225Z,16.73
2018-11-13T02:15:00.570Z,12.83
2018-11-13T02:17:28.179Z,11.37
2018-11-13T02:19:55.760Z,9.60
2018-11-13T02:22:23.374Z,9.23
2018-11-13T02:24:51.729Z,8.00
2018-11-13T02:27:19.311Z,10.30
2018-11-13T02:29:46.920Z,15.67
2018-11-13T02:32:14.501Z,10.37
2018-11-13T02:34:42.575Z,10.00
2018-11-13T02:37:10.161Z,11.83
2018-11-13T02:39:37.761Z,11.93
2018-11-13T02:42:06.127Z,12.67
2018-11-13T02:44:34.479Z,12.40
2018-11-13T02:47:02.101Z,12.30
2018-11-13T02:49:29.704Z,12.18
2018-11-13T02:51:57.417Z,8.57
2018-11-13T02:54:25.019Z,10.27
2018-11-13T02:56:52.600Z,6.47
2018-11-13T02:59:20.565Z,7.57
2018-11-13T03:01:48.151Z,7.50
2018-11-13T03:04:15.753Z,10.18
2018-11-13T03:06:43.379Z,7.13
2018-11-13T03:09:11.729Z,6.83
2018-11-13T03:11:39.317Z,5.57
2018-11-13T03:14:07.704Z,8.77
2018-11-13T03:16:35.283Z,7.33
2018-11-13T03:19:02.872Z,5.60
2018-11-13T03:21:30.480Z,6.43
2018-11-13T03:23:58.823Z,8.40
2018-11-13T03:26:26.894Z,6.60
2018-11-13T03:28:54.487Z,8.32
2018-11-13T03:31:22.935Z,8.35
2018-11-13T03:33:50.450Z,6.77
2018-11-13T03:36:18.031Z,7.13
2018-11-13T03:38:45.644Z,5.93
2018-11-13T03:41:13.222Z,7.47
2018-11-13T03:43:41.570Z,7.17
2018-11-13T03:46:09.174Z,6.63
2018-11-13T03:48:36.750Z,7.65
2018-11-13T03:51:04.393Z,6.70
2018-11-13T03:53:32.741Z,7.40
2018-11-13T03:56:00.320Z,7.20
2018-11-13T03:58:28.689Z,8.02
2018-11-13T04:00:56.266Z,6.80
2018-11-13T04:03:24.648Z,8.90
2018-11-13T04:05:52.997Z,7.30
2018-11-13T04:08:20.850Z,7.13
2018-11-13T04:10:48.462Z,7.43
2018-11-13T04:13:16.809Z,5.77
2018-11-13T04:15:44.421Z,5.03
2018-11-13T04:18:11.999Z,5.67
2018-11-13T04:20:39.584Z,5.10
2018-11-13T04:23:07.191Z,6.00
2018-11-13T04:25:35.543Z,5.87
2018-11-13T04:28:03.114Z,4.63
2018-11-13T04:30:30.749Z,6.68
2018-11-13T04:32:58.308Z,6.03
2018-11-13T04:35:25.891Z,7.20
2018-11-13T04:37:53.527Z,5.03
2018-11-13T04:40:21.398Z,5.32
2018-11-13T04:42:48.978Z,4.97
2018-11-13T04:45:16.596Z,5.63
2018-11-13T04:47:44.175Z,5.23
2018-11-13T04:50:11.755Z,5.07
2018-11-13T04:52:39.376Z,6.30
2018-11-13T04:55:06.961Z,4.87
2018-11-13T04:57:34.536Z,5.17
2018-11-13T05:00:02.169Z,5.67
2018-11-13T05:02:29.762Z,7.20
2018-11-13T05:04:57.332Z,5.90
2018-11-13T05:07:24.949Z,8.60
2018-11-13T05:09:52.531Z,6.57
2018-11-13T05:12:20.114Z,6.60
2018-11-13T05:14:47.708Z,5.53
2018-11-13T05:17:16.061Z,5.13
2018-11-13T05:19:43.686Z,5.20
2018-11-13T05:22:12.266Z,6.17
2018-11-13T05:24:39.840Z,6.30
2018-11-13T05:27:07.467Z,5.17
2018-11-13T05:29:35.870Z,5.70
2018-11-13T05:32:03.447Z,5.93
2018-11-13T05:34:31.543Z,5.67
2018-11-13T05:36:59.122Z,6.30
2018-11-13T05:39:26.705Z,5.30
2018-11-13T05:41:54.524Z,7.03
2018-11-13T05:44:21.998Z,5.27
2018-11-13T05:46:49.580Z,5.97
2018-11-13T05:49:17.946Z,7.03
2018-11-13T05:51:45.524Z,5.47
2018-11-13T05:54:14.191Z,5.23
2018-11-13T05:56:41.824Z,6.07
2018-11-13T05:59:11.909Z,8.13
2018-11-13T06:01:36.955Z,8.45
2018-11-13T06:04:04.532Z,5.60
2018-11-13T06:06:32.916Z,6.57
2018-11-13T06:09:00.495Z,5.53
2018-11-13T06:11:28.843Z,10.20
2018-11-13T06:13:56.498Z,5.50
2018-11-13T06:16:24.794Z,5.90
2018-11-13T06:18:52.471Z,6.60
2018-11-13T06:21:20.055Z,6.12
2018-11-13T06:23:47.634Z,5.80
2018-11-13T06:26:15.294Z,6.20
2018-11-13T06:28:42.872Z,5.40
2018-11-13T06:31:10.447Z,6.40
2018-11-13T06:33:38.049Z,5.07
2018-11-13T06:36:06.397Z,7.50
2018-11-13T06:38:34.628Z,4.57
2018-11-13T06:41:02.196Z,4.67
2018-11-13T06:43:29.781Z,6.20
2018-11-13T06:45:57.411Z,4.60
2018-11-13T06:48:25.755Z,5.00
2018-11-13T06:50:53.336Z,5.23
2018-11-13T06:53:21.704Z,7.32
2018-11-13T06:55:49.278Z,6.57
2018-11-13T06:58:16.903Z,4.63
2018-11-13T07:00:44.481Z,5.77
2018-11-13T07:03:12.062Z,6.43
2018-11-13T07:05:39.709Z,4.70
2018-11-13T07:08:07.286Z,3.90
2018-11-13T07:10:35.662Z,5.67
2018-11-13T07:13:04.145Z,6.43
2018-11-13T07:15:32.079Z,5.97
2018-11-13T07:17:59.651Z,8.20
2018-11-13T07:20:28.151Z,5.37
2018-11-13T07:22:55.719Z,5.63
2018-11-13T07:25:24.399Z,8.27
2018-11-13T07:27:52.717Z,4.87
2018-11-13T07:30:20.281Z,5.67
2018-11-13T07:32:47.928Z,6.57
2018-11-13T07:35:16.274Z,7.20
2018-11-13T07:37:43.852Z,4.73
2018-11-13T07:40:12.254Z,7.40
2018-11-13T07:42:39.866Z,5.23
2018-11-13T07:45:07.424Z,5.20
2018-11-13T07:47:35.141Z,7.37
2018-11-13T07:50:02.663Z,5.77
2018-11-13T07:52:30.243Z,4.97
2018-11-13T07:54:58.673Z,7.07
2018-11-13T07:57:26.251Z,5.43
2018-11-13T07:59:53.832Z,8.10
2018-11-13T08:02:21.487Z,6.20
2018-11-13T08:04:49.067Z,7.32
2018-11-13T08:07:16.694Z,9.32
2018-11-13T08:09:45.069Z,5.63
2018-11-13T08:12:12.648Z,5.13
2018-11-13T08:14:40.229Z,4.90
2018-11-13T08:17:07.910Z,5.07
2018-11-13T08:19:36.251Z,8.67
2018-11-13T08:22:03.833Z,5.00
2018-11-13T08:24:31.438Z,5.87
2018-11-13T08:26:59.094Z,6.30
2018-11-13T08:29:26.682Z,7.40
2018-11-13T08:31:54.986Z,5.47
2018-11-13T08:34:22.612Z,8.70
2018-11-13T08:36:50.194Z,5.97
2018-11-13T08:39:17.771Z,9.63
2018-11-13T08:41:45.380Z,5.53
2018-11-13T08:44:13.120Z,5.33
2018-11-13T08:46:40.605Z,5.20
2018-11-13T08:49:08.187Z,8.40
2018-11-13T08:51:35.789Z,8.87
2018-11-13T08:54:03.862Z,4.50
2018-11-13T08:56:31.445Z,8.32
2018-11-13T08:58:59.852Z,6.03
2018-11-13T09:01:27.670Z,10.53
2018-11-13T09:03:55.255Z,6.07
2018-11-13T09:06:23.595Z,4.83
2018-11-13T09:08:51.226Z,7.40
2018-11-13T09:11:18.902Z,7.97
2018-11-13T09:13:46.399Z,9.63
2018-11-13T09:16:14.025Z,5.37
2018-11-13T09:18:41.649Z,8.73
2018-11-13T09:21:09.190Z,8.33
2018-11-13T09:23:36.860Z,7.03
2018-11-13T09:26:04.465Z,5.97
2018-11-13T09:28:32.774Z,6.70
2018-11-13T09:31:00.574Z,9.73
2018-11-13T09:33:28.026Z,6.43
2018-11-13T09:35:55.589Z,6.53
2018-11-13T09:38:23.518Z,7.17
2018-11-13T09:40:51.112Z,7.67
2018-11-13T09:43:19.175Z,4.90
2018-11-13T09:45:46.808Z,6.97
2018-11-13T09:48:15.108Z,7.12
2018-11-13T09:50:42.755Z,7.87
2018-11-13T09:53:10.354Z,6.33
2018-11-13T09:55:37.897Z,7.13
2018-11-13T09:58:05.625Z,8.10
2018-11-13T10:00:33.435Z,5.60
2018-11-13T10:03:01.451Z,9.40
2018-11-13T10:05:28.604Z,9.33
2018-11-13T10:07:56.019Z,4.50
2018-11-13T10:10:23.656Z,6.73
2018-11-13T10:12:52.009Z,6.00
2018-11-13T10:15:19.595Z,9.50
2018-11-13T10:17:47.243Z,7.57
2018-11-13T10:20:14.776Z,11.37
2018-11-13T10:22:43.150Z,6.27
2018-11-13T10:25:10.726Z,6.67
2018-11-13T10:27:38.398Z,14.20
2018-11-13T10:30:05.947Z,6.50
2018-11-13T10:32:34.287Z,5.90
2018-11-13T10:35:03.346Z,8.07
2018-11-13T10:37:30.927Z,8.27
2018-11-13T10:39:58.548Z,5.50
2018-11-13T10:42:26.154Z,6.07
2018-11-13T10:44:53.728Z,7.97
2018-11-13T10:47:21.308Z,8.97
2018-11-13T10:49:49.980Z,5.60
2018-11-13T10:52:17.556Z,5.73
2018-11-13T10:54:45.132Z,7.00
2018-11-13T10:57:14.487Z,8.90
2018-11-13T10:59:42.075Z,5.40
2018-11-13T11:02:09.692Z,7.80
2018-11-13T11:04:38.026Z,6.13
2018-11-13T11:07:06.379Z,9.77
2018-11-13T11:09:34.029Z,4.70
2018-11-13T11:12:01.607Z,8.47
2018-11-13T11:14:29.190Z,9.50
2018-11-13T11:16:56.837Z,8.40
2018-11-13T11:19:24.498Z,5.53
2018-11-13T11:21:52.791Z,7.00
2018-11-13T11:24:20.417Z,7.40
2018-11-13T11:26:48.490Z,7.03
2018-11-13T11:29:17.616Z,8.33
2018-11-13T11:31:45.202Z,11.47
2018-11-13T11:34:13.541Z,6.17
2018-11-13T11:36:41.530Z,11.63
2018-11-13T11:39:09.156Z,11.50
2018-11-13T11:41:36.683Z,8.07
2018-11-13T11:44:05.116Z,10.07
2018-11-13T11:46:32.700Z,6.67
2018-11-13T11:49:00.282Z,5.30
2018-11-13T11:51:29.259Z,5.43
2018-11-13T11:53:57.230Z,6.10
2018-11-13T11:56:24.771Z,5.03
2018-11-13T11:58:52.400Z,7.53
2018-11-13T12:01:19.975Z,6.27
2018-11-13T12:03:47.555Z,8.90
2018-11-13T12:06:15.179Z,4.03
2018-11-13T12:08:43.069Z,6.05
2018-11-13T12:11:10.651Z,5.17
2018-11-13T12:13:39.345Z,4.80
2018-11-13T12:16:07.035Z,7.10
2018-11-13T12:18:35.383Z,3.67
2018-11-13T12:21:04.051Z,4.37
2018-11-13T12:23:31.918Z,8.10
2018-11-13T12:25:59.562Z,5.47
2018-11-13T12:28:28.398Z,4.43
2018-11-13T12:30:55.991Z,4.97
2018-11-13T12:33:24.335Z,7.80
2018-11-13T12:35:51.968Z,3.47
2018-11-13T12:38:19.541Z,2.40
2018-11-13T12:40:47.229Z,4.10
2018-11-13T12:43:14.747Z,3.77
2018-11-13T12:45:42.325Z,4.50
2018-11-13T12:48:09.964Z,8.17
2018-11-13T12:50:37.547Z,6.97
2018-11-13T12:53:05.130Z,12.30
2018-11-13T12:55:32.819Z,8.03
2018-11-13T12:58:00.341Z,5.28
2018-11-13T13:00:27.916Z,8.10
2018-11-13T13:02:55.549Z,21.85
2018-11-13T13:05:23.134Z,10.23
2018-11-13T13:07:50.723Z,5.33
2018-11-13T13:10:18.329Z,10.07
2018-11-13T13:12:45.910Z,10.33
2018-11-13T13:15:14.620Z,4.97
2018-11-13T13:17:42.205Z,5.53
2018-11-13T13:20:09.790Z,2.17
2018-11-13T13:22:37.415Z,7.80
2018-11-13T13:25:05.134Z,3.67
2018-11-13T13:27:32.592Z,5.07
2018-11-13T13:30:00.321Z,4.70
2018-11-13T13:32:28.665Z,12.93
2018-11-13T13:34:56.513Z,6.30
2018-11-13T13:37:24.482Z,5.45
2018-11-13T13:39:52.158Z,2.83
2018-11-13T13:42:19.797Z,5.80
2018-11-13T13:44:47.378Z,3.17
2018-11-13T13:47:14.964Z,3.03
2018-11-13T13:49:42.594Z,5.35
2018-11-13T13:52:10.208Z,4.83
2018-11-13T13:54:38.554Z,4.27
2018-11-13T13:57:06.180Z,5.40
2018-11-13T13:59:33.809Z,6.80
2018-11-13T14:02:01.380Z,1.60
2018-11-13T14:04:30.624Z,3.07
2018-11-13T14:06:58.210Z,2.97
2018-11-13T14:09:25.808Z,5.87
2018-11-13T14:11:53.439Z,2.97
2018-11-13T14:14:21.019Z,5.83
2018-11-13T14:16:49.413Z,7.17
2018-11-13T14:19:17.426Z,5.97
2018-11-13T14:21:45.001Z,6.53
2018-11-13T14:24:12.579Z,7.97
2018-11-13T14:26:40.254Z,3.93
2018-11-13T14:29:07.887Z,5.40
2018-11-13T14:31:36.164Z,4.23
2018-11-13T14:34:03.804Z,5.40
2018-11-13T14:36:31.379Z,3.23
2018-11-13T14:38:58.971Z,5.97
2018-11-13T14:41:26.610Z,7.23
2018-11-13T14:43:54.187Z,2.97
2018-11-13T14:46:21.828Z,6.57
2018-11-13T14:48:50.536Z,6.83
2018-11-13T14:51:18.121Z,3.57
2018-11-13T14:53:46.468Z,4.53
2018-11-13T14:56:14.095Z,3.73
2018-11-13T14:58:41.685Z,7.05
2018-11-13T15:01:09.270Z,5.13
2018-11-13T15:03:36.895Z,10.43
2018-11-13T15:06:04.474Z,3.30
2018-11-13T15:08:32.059Z,6.87
2018-11-13T15:10:59.700Z,8.90
2018-11-13T15:13:27.330Z,3.43
2018-11-13T15:15:54.917Z,6.00
2018-11-13T15:18:22.538Z,4.67
2018-11-13T15:20:50.126Z,5.20
2018-11-13T15:23:17.708Z,8.87
2018-11-13T15:25:45.666Z,4.07
2018-11-13T15:28:13.253Z,6.10
2018-11-13T15:30:40.851Z,3.90
2018-11-13T15:33:09.238Z,3.90
2018-11-13T15:35:36.822Z,7.57
2018-11-13T15:38:04.406Z,4.40
2018-11-13T15:40:32.036Z,6.87
2018-11-13T15:42:59.612Z,4.20
2018-11-13T15:45:27.192Z,6.27
2018-11-13T15:47:54.827Z,5.67
2018-11-13T15:50:22.415Z,4.70
2018-11-13T15:52:49.998Z,9.70
2018-11-13T15:55:17.934Z,4.27
2018-11-13T15:57:45.556Z,5.70
2018-11-13T16:00:13.098Z,7.37
2018-11-13T16:02:41.098Z,7.65
2018-11-13T16:05:08.645Z,7.30
2018-11-13T16:07:36.989Z,8.20
2018-11-13T16:10:04.667Z,6.73
2018-11-13T16:12:32.275Z,6.60
2018-11-13T16:14:59.844Z,5.90
2018-11-13T16:17:28.208Z,9.95
2018-11-13T16:19:55.930Z,4.83
2018-11-13T16:22:23.494Z,8.40
2018-11-13T16:24:52.663Z,8.77
2018-11-13T16:27:20.245Z,4.23
2018-11-13T16:29:47.871Z,6.30
2018-11-13T16:32:15.453Z,6.97
2018-11-13T16:34:43.039Z,9.90
2018-11-13T16:37:10.620Z,4.80
2018-11-13T16:39:39.368Z,6.73
2018-11-13T16:42:07.018Z,6.87
2018-11-13T16:44:35.150Z,5.65
2018-11-13T16:47:03.498Z,4.17
2018-11-13T16:49:31.128Z,8.27
2018-11-13T16:51:59.182Z,10.03
2018-11-13T16:54:26.782Z,7.07
2018-11-13T16:56:54.426Z,7.20
2018-11-13T16:59:22.039Z,3.53
2018-11-13T17:01:49.585Z,7.47
2018-11-13T17:04:17.176Z,5.27
2018-11-13T17:06:45.744Z,9.37
2018-11-13T17:09:13.157Z,9.60
2018-11-13T17:11:40.805Z,8.57
2018-11-13T17:14:08.404Z,10.07
2018-11-13T17:16:35.965Z,15.37
2018-11-13T17:19:03.560Z,10.63
2018-11-13T17:21:31.955Z,19.50
2018-11-13T17:23:59.570Z,23.43
2018-11-13T17:26:27.177Z,23.73
2018-11-13T17:28:55.704Z,24.40
2018-11-13T17:31:23.316Z,26.62
2018-11-13T17:33:50.873Z,21.70
2018-11-13T17:36:19.786Z,15.03
2018-11-13T17:38:47.372Z,18.73
2018-11-13T17:41:14.951Z,14.20
2018-11-13T17:43:42.584Z,13.83
2018-11-13T17:46:10.180Z,13.83
2018-11-13T17:48:37.766Z,37.17
2018-11-13T17:51:06.166Z,19.90
2018-11-13T17:53:33.800Z,13.03
2018-11-13T17:56:01.336Z,15.33
2018-11-13T17:58:28.981Z,9.30
2018-11-13T18:00:56.563Z,17.73
2018-11-13T18:03:24.151Z,25.55
2018-11-13T18:05:51.781Z,18.13
2018-11-13T18:08:19.361Z,16.97
2018-11-13T18:10:46.943Z,16.87
2018-11-13T18:13:16.036Z,15.30
2018-11-13T18:15:43.616Z,12.27
2018-11-13T18:18:11.208Z,10.60
2018-11-13T18:20:38.826Z,10.70
2018-11-13T18:23:06.403Z,12.83
2018-11-13T18:25:34.751Z,12.80
2018-11-13T18:28:02.762Z,12.77
2018-11-13T18:30:30.304Z,13.50
2018-11-13T18:32:58.331Z,15.90
2018-11-13T18:35:25.955Z,17.98
2018-11-13T18:37:53.619Z,13.17
2018-11-13T18:40:21.121Z,17.83
2018-11-13T18:42:49.546Z,14.80
2018-11-13T18:45:17.888Z,16.60
2018-11-13T18:47:45.463Z,13.93
2018-11-13T18:50:13.516Z,12.20
2018-11-13T18:52:41.343Z,21.90
2018-11-13T18:55:08.922Z,9.93
2018-11-13T18:57:36.555Z,16.57
2018-11-13T19:00:04.900Z,12.87
2018-11-13T19:02:32.479Z,12.57
2018-11-13T19:05:01.182Z,9.83
2018-11-13T19:07:28.747Z,14.13
2018-11-13T19:09:56.329Z,12.40
2018-11-13T19:12:24.019Z,17.77
2018-11-13T19:14:52.346Z,11.23
2018-11-13T19:17:19.940Z,12.40
2018-11-13T19:19:48.324Z,15.17
2018-11-13T19:22:16.102Z,17.07
2018-11-13T19:24:43.809Z,15.13
2018-11-13T19:27:11.395Z,13.30
2018-11-13T19:29:39.043Z,16.63
2018-11-13T19:32:06.637Z,20.63
2018-11-13T19:34:34.222Z,18.63
2018-11-13T19:37:01.864Z,17.93
2018-11-13T19:39:30.694Z,15.67
2018-11-13T19:41:58.284Z,18.25
2018-11-13T19:44:26.685Z,20.83
2018-11-13T19:46:54.240Z,19.30
2018-11-13T19:49:22.246Z,17.17
2018-11-13T19:51:49.477Z,17.57
2018-11-13T19:54:17.052Z,20.07
2018-11-13T19:56:44.642Z,14.00
2018-11-13T19:59:12.829Z,16.00
2018-11-13T20:01:40.403Z,19.03
2018-11-13T20:04:08.814Z,11.40
2018-11-13T20:06:36.848Z,13.57
2018-11-13T20:09:04.524Z,12.53
2018-11-13T20:11:32.233Z,14.63
2018-11-13T20:13:59.826Z,9.70
2018-11-13T20:16:27.484Z,11.80
2018-11-13T20:18:55.068Z,13.70
2018-11-13T20:21:22.644Z,18.33
2018-11-13T20:23:51.378Z,14.93
2018-11-13T20:26:19.014Z,13.93
2018-11-13T20:28:46.596Z,14.17
2018-11-13T20:31:14.213Z,16.30
2018-11-13T20:33:42.166Z,18.40
2018-11-13T20:36:09.743Z,22.37
2018-11-13T20:38:37.357Z,15.23
2018-11-13T20:41:06.180Z,22.43
2018-11-13T20:43:33.802Z,39.05
2018-11-13T20:46:01.361Z,31.87
2018-11-13T20:48:28.985Z,27.70
2018-11-13T20:50:56.570Z,27.70
2018-11-13T20:53:24.171Z,23.27
2018-11-13T20:55:52.254Z,18.60
2018-11-13T20:58:19.845Z,13.63
2018-11-13T21:00:47.429Z,12.63
2018-11-13T21:03:15.055Z,13.30
2018-11-13T21:05:42.675Z,15.00
2018-11-13T21:08:10.227Z,19.20
2018-11-13T21:10:37.900Z,15.73
2018-11-13T21:13:06.210Z,13.13
2018-11-13T21:15:33.789Z,12.57
2018-11-13T21:18:02.887Z,12.40
2018-11-13T21:20:31.232Z,13.03
2018-11-13T21:22:58.823Z,12.90
2018-11-13T21:25:27.215Z,17.67
2018-11-13T21:27:55.561Z,13.20
2018-11-13T21:30:23.218Z,12.73
2018-11-13T21:32:50.772Z,12.73
2018-11-13T21:35:18.346Z,10.30
2018-11-13T21:37:45.994Z,11.00
2018-11-13T21:40:13.551Z,19.43
2018-11-13T21:42:41.135Z,14.80
2018-11-13T21:45:08.747Z,12.77
2018-11-13T21:47:36.982Z,12.07
2018-11-13T21:50:04.613Z,18.20
2018-11-13T21:52:32.136Z,17.97
2018-11-13T21:54:59.758Z,12.00
2018-11-13T21:57:27.334Z,17.80
2018-11-13T21:59:54.910Z,24.03
2018-11-13T22:02:23.280Z,28.53
2018-11-13T22:04:51.656Z,21.20
2018-11-13T22:07:19.514Z,23.20
2018-11-13T22:09:47.108Z,23.30
2018-11-13T22:12:14.687Z,22.90
2018-11-13T22:14:42.330Z,18.17
2018-11-13T22:17:10.685Z,18.80
2018-11-13T22:19:38.291Z,25.30
2018-11-13T22:22:06.719Z,17.13
2018-11-13T22:24:34.258Z,16.53
2018-11-13T22:27:01.882Z,28.73
2018-11-13T22:29:30.447Z,31.00
2018-11-13T22:31:58.802Z,27.00
2018-11-13T22:34:26.392Z,14.17
2018-11-13T22:36:54.011Z,13.47
2018-11-13T22:39:21.832Z,43.97
2018-11-13T22:41:50.166Z,94.87
2018-11-13T22:44:17.891Z,86.93
2018-11-13T22:46:45.436Z,78.60
2018-11-13T22:49:13.788Z,82.27
2018-11-13T22:51:41.414Z,84.00
2018-11-13T22:54:09.290Z,121.17
2018-11-13T22:56:36.887Z,168.47
2018-11-13T22:59:05.327Z,119.03
2018-11-13T23:01:32.917Z,170.40
2018-11-13T23:04:00.616Z,184.47
2018-11-13T23:06:28.276Z,150.50
2018-11-13T23:08:55.868Z,143.20
2018-11-13T23:11:23.462Z,151.50
2018-11-13T23:13:51.066Z,87.93
2018-11-13T23:16:18.644Z,63.37
2018-11-13T23:18:46.229Z,170.23
2018-11-13T23:21:13.834Z,103.93
2018-11-13T23:23:42.186Z,112.53
2018-11-13T23:26:09.861Z,109.93
2018-11-13T23:28:37.463Z,71.45
2018-11-13T23:31:05.050Z,65.60
2018-11-13T23:33:32.664Z,114.33
2018-11-13T23:36:01.080Z,97.50
2018-11-13T23:38:28.971Z,81.97
2018-11-13T23:40:56.552Z,89.97
2018-11-13T23:43:24.135Z,64.87
2018-11-13T23:45:51.746Z,68.20
2018-11-13T23:48:19.328Z,61.53
2018-11-13T23:50:47.346Z,54.37
2018-11-13T23:53:15.695Z,40.27
2018-11-13T23:55:43.360Z,57.80
2018-11-13T23:58:10.976Z,43.20
